createdAt,value
2022-10-17T00:02:48.315Z,2.00
2022-10-17T00:05:52.471Z,2.13
2022-10-17T00:08:55.202Z,3.30
2022-10-17T00:11:57.909Z,1.88
2022-10-17T00:15:00.580Z,1.73
2022-10-17T00:18:03.408Z,1.98
2022-10-17T00:21:07.487Z,1.90
2022-10-17T00:24:10.114Z,2.33
2022-10-17T00:27:12.798Z,1.80
2022-10-17T00:30:16.478Z,1.75
2022-10-17T00:33:19.316Z,2.00
2022-10-17T00:36:25.254Z,1.90
2022-10-17T00:39:27.876Z,2.43
2022-10-17T00:42:31.034Z,2.00
2022-10-17T00:45:33.983Z,2.15
2022-10-17T00:48:36.695Z,2.03
2022-10-17T00:51:44.772Z,1.70
2022-10-17T00:54:50.958Z,1.67
2022-10-17T00:57:54.048Z,2.20
2022-10-17T01:00:56.798Z,3.58
2022-10-17T01:03:59.511Z,2.08
2022-10-17T01:07:03.597Z,1.90
2022-10-17T01:10:07.597Z,1.77
2022-10-17T01:13:14.990Z,1.90
2022-10-17T01:16:21.405Z,1.57
2022-10-17T01:19:42.121Z,1.77
2022-10-17T01:22:48.847Z,2.07
2022-10-17T01:25:56.735Z,2.60
2022-10-17T01:29:22.132Z,1.90
2022-10-17T01:32:30.405Z,2.27
2022-10-17T01:35:38.685Z,1.90
2022-10-17T01:38:46.883Z,1.60
2022-10-17T01:41:54.142Z,1.77
2022-10-17T01:44:59.661Z,2.27
2022-10-17T01:48:08.902Z,2.60
2022-10-17T01:51:15.057Z,1.70
2022-10-17T01:54:22.130Z,1.70
2022-10-17T01:57:29.743Z,2.23
2022-10-17T02:00:33.614Z,1.90
2022-10-17T02:03:37.908Z,2.23
2022-10-17T02:06:40.618Z,2.40
2022-10-17T02:09:43.415Z,2.38
2022-10-17T02:12:51.239Z,1.90
2022-10-17T02:16:08.175Z,1.63
2022-10-17T02:19:34.264Z,1.90
2022-10-17T02:22:40.581Z,1.90
2022-10-17T02:25:46.540Z,2.10
2022-10-17T02:28:53.667Z,2.33
2022-10-17T02:31:59.486Z,2.10
2022-10-17T02:35:05.192Z,1.90
2022-10-17T02:38:09.724Z,1.70
2022-10-17T02:41:15.771Z,1.80
2022-10-17T02:44:18.942Z,1.60
2022-10-17T02:47:24.674Z,2.00
2022-10-17T02:50:35.014Z,2.50
2022-10-17T02:53:41.636Z,2.17
2022-10-17T02:56:49.586Z,1.83
2022-10-17T02:59:52.521Z,1.67
2022-10-17T03:02:56.066Z,1.85
2022-10-17T03:09:02.725Z,1.77
2022-10-17T03:12:06.186Z,1.58
2022-10-17T03:15:09.931Z,2.10
2022-10-17T03:18:12.672Z,1.90
2022-10-17T03:21:16.662Z,1.80
2022-10-17T03:24:19.416Z,1.70
2022-10-17T03:27:22.277Z,1.75
2022-10-17T03:30:24.901Z,1.90
2022-10-17T03:33:27.769Z,1.65
2022-10-17T03:36:31.736Z,1.90
2022-10-17T03:39:34.348Z,1.70
2022-10-17T03:42:36.975Z,2.03
2022-10-17T03:45:39.707Z,1.77
2022-10-17T03:48:42.599Z,2.10
2022-10-17T03:51:46.708Z,1.90
2022-10-17T03:54:50.735Z,2.13
2022-10-17T03:57:53.465Z,2.00
2022-10-17T04:00:56.103Z,2.30
2022-10-17T04:03:59.042Z,2.00
2022-10-17T04:07:03.072Z,1.73
2022-10-17T04:10:07.000Z,2.17
2022-10-17T04:13:09.719Z,2.00
2022-10-17T04:16:15.164Z,2.35
2022-10-17T04:19:17.798Z,1.90
2022-10-17T04:22:21.875Z,2.20
2022-10-17T04:25:24.502Z,2.30
2022-10-17T04:28:28.243Z,2.10
2022-10-17T04:31:31.042Z,3.40
2022-10-17T04:34:33.918Z,2.47
2022-10-17T04:37:38.081Z,2.28
2022-10-17T04:40:40.712Z,2.93
2022-10-17T04:43:45.655Z,2.90
2022-10-17T04:46:51.328Z,2.60
2022-10-17T04:49:54.175Z,2.72
2022-10-17T04:52:58.205Z,3.38
2022-10-17T04:56:00.993Z,3.03
2022-10-17T04:59:05.316Z,2.15
2022-10-17T05:02:08.053Z,2.20
2022-10-17T05:05:11.249Z,2.22
2022-10-17T05:08:15.403Z,2.65
2022-10-17T05:11:19.726Z,2.27
2022-10-17T05:14:22.509Z,3.37
2022-10-17T05:17:25.430Z,2.22
2022-10-17T05:20:28.677Z,3.10
2022-10-17T05:23:32.845Z,2.30
2022-10-17T05:26:35.670Z,3.13
2022-10-17T05:29:39.205Z,1.90
2022-10-17T05:35:44.417Z,2.40
2022-10-17T05:38:51.574Z,2.63
2022-10-17T05:41:54.379Z,2.40
2022-10-17T05:44:57.009Z,3.75
2022-10-17T05:47:59.725Z,3.37
2022-10-17T05:51:03.708Z,2.78
2022-10-17T05:54:08.168Z,2.30
2022-10-17T05:57:10.919Z,2.50
2022-10-17T06:00:14.894Z,2.17
2022-10-17T06:03:17.708Z,2.83
2022-10-17T06:06:20.672Z,2.70
2022-10-17T06:09:25.203Z,2.70
2022-10-17T06:12:28.077Z,3.03
2022-10-17T06:15:31.048Z,2.03
2022-10-17T06:18:34.047Z,2.60
2022-10-17T06:21:38.640Z,2.25
2022-10-17T06:24:43.359Z,2.50
2022-10-17T06:27:46.099Z,2.33
2022-10-17T06:30:48.858Z,3.90
2022-10-17T06:33:51.599Z,3.05
2022-10-17T06:36:54.652Z,2.28
2022-10-17T06:39:58.769Z,2.30
2022-10-17T06:43:01.467Z,4.40
2022-10-17T06:46:04.580Z,2.67
2022-10-17T06:49:07.979Z,3.90
2022-10-17T06:52:11.550Z,3.42
2022-10-17T06:58:24.803Z,3.00
2022-10-17T07:01:28.597Z,2.95
2022-10-17T07:04:31.403Z,2.67
2022-10-17T07:07:34.113Z,3.28
2022-10-17T07:10:38.569Z,3.45
2022-10-17T07:13:41.378Z,3.20
2022-10-17T07:16:44.212Z,3.83
2022-10-17T07:19:47.025Z,2.90
2022-10-17T07:22:49.755Z,3.25
2022-10-17T07:25:54.471Z,3.35
2022-10-17T07:28:57.430Z,3.43
2022-10-17T07:32:00.093Z,4.90
2022-10-17T07:35:02.816Z,2.70
2022-10-17T07:38:05.547Z,3.13
2022-10-17T07:41:10.734Z,3.00
2022-10-17T07:44:15.268Z,2.87
2022-10-17T07:47:18.095Z,2.90
2022-10-17T07:50:20.825Z,2.22
2022-10-17T07:53:23.624Z,3.38
2022-10-17T07:56:29.532Z,2.85
2022-10-17T07:59:33.900Z,2.50
2022-10-17T08:02:37.019Z,2.47
2022-10-17T08:05:39.754Z,2.53
2022-10-17T08:08:42.917Z,2.47
2022-10-17T08:11:47.260Z,2.28
2022-10-17T08:14:50.203Z,4.03
2022-10-17T08:17:55.578Z,2.60
2022-10-17T08:21:00.489Z,2.27
2022-10-17T08:24:03.937Z,2.60
2022-10-17T08:30:14.536Z,3.00
2022-10-17T08:33:17.189Z,2.65
2022-10-17T08:36:21.440Z,3.00
2022-10-17T08:39:24.104Z,2.90
2022-10-17T08:42:41.440Z,2.30
2022-10-17T08:45:47.865Z,2.20
2022-10-17T08:48:52.759Z,2.20
2022-10-17T08:52:06.029Z,2.20
2022-10-17T08:55:16.056Z,2.45
2022-10-17T08:58:22.044Z,2.50
2022-10-17T09:01:34.475Z,3.00
2022-10-17T09:04:57.433Z,2.87
2022-10-17T09:08:08.338Z,2.17
2022-10-17T09:11:18.409Z,2.83
2022-10-17T09:14:39.372Z,2.60
2022-10-17T09:17:49.671Z,2.30
2022-10-17T09:20:53.718Z,3.20
2022-10-17T09:24:09.326Z,2.63
2022-10-17T09:27:19.583Z,1.93
2022-10-17T09:30:47.205Z,1.60
2022-10-17T09:33:55.356Z,2.17
2022-10-17T09:36:59.724Z,1.93
2022-10-17T09:40:02.492Z,2.00
2022-10-17T09:43:08.240Z,2.80
2022-10-17T09:46:18.574Z,2.60
2022-10-17T09:49:24.371Z,2.13
2022-10-17T09:52:30.350Z,2.63
2022-10-17T09:55:39.939Z,2.20
2022-10-17T09:58:44.019Z,1.70
2022-10-17T10:01:48.305Z,2.40
2022-10-17T10:05:05.539Z,2.40
2022-10-17T10:08:15.598Z,2.00
2022-10-17T10:11:19.253Z,2.10
2022-10-17T10:14:24.017Z,3.00
2022-10-17T10:17:37.012Z,2.07
2022-10-17T10:20:41.088Z,2.00
2022-10-17T10:23:45.255Z,1.97
2022-10-17T10:26:49.383Z,2.33
2022-10-17T10:29:53.461Z,2.17
2022-10-17T10:32:58.950Z,2.20
2022-10-17T10:36:03.518Z,1.90
2022-10-17T10:39:06.516Z,2.20
2022-10-17T10:42:20.084Z,2.28
2022-10-17T10:48:56.478Z,1.43
2022-10-17T10:51:59.752Z,1.80
2022-10-17T10:55:11.503Z,1.37
2022-10-17T10:58:23.025Z,1.13
2022-10-17T11:01:31.069Z,1.40
2022-10-17T11:04:38.923Z,1.33
2022-10-17T11:07:45.269Z,1.13
2022-10-17T11:10:58.711Z,1.90
2022-10-17T11:14:04.875Z,1.30
2022-10-17T11:17:14.169Z,1.35
2022-10-17T11:20:23.304Z,1.40
2022-10-17T11:23:30.390Z,1.10
2022-10-17T11:26:36.653Z,0.90
2022-10-17T11:29:40.807Z,1.50
2022-10-17T11:32:46.335Z,1.17
2022-10-17T11:35:53.300Z,1.48
2022-10-17T11:38:59.744Z,0.90
2022-10-17T11:42:06.981Z,1.00
2022-10-17T11:45:12.886Z,1.13
2022-10-17T11:48:20.406Z,0.73
2022-10-17T11:54:52.006Z,1.10
2022-10-17T11:58:17.183Z,1.10
2022-10-17T12:01:26.080Z,1.05
2022-10-17T12:04:44.825Z,0.88
2022-10-17T12:07:56.876Z,0.82
2022-10-17T12:11:02.524Z,1.30
2022-10-17T12:14:45.203Z,1.25
2022-10-17T12:17:48.653Z,0.82
2022-10-17T12:20:57.079Z,1.20
2022-10-17T12:24:01.708Z,0.82
2022-10-17T12:27:24.432Z,0.93
2022-10-17T12:30:28.193Z,1.40
2022-10-17T12:33:33.974Z,0.98
2022-10-17T12:36:40.660Z,1.30
2022-10-17T12:39:44.756Z,0.85
2022-10-17T12:42:51.141Z,1.10
2022-10-17T12:45:54.728Z,1.20
2022-10-17T12:49:16.043Z,0.82
2022-10-17T12:52:27.163Z,0.80
2022-10-17T12:55:31.639Z,1.50
2022-10-17T12:58:35.947Z,1.00
2022-10-17T13:01:40.378Z,0.95
2022-10-17T13:04:45.198Z,0.85
2022-10-17T13:07:49.733Z,0.88
2022-10-17T13:10:54.663Z,1.02
2022-10-17T13:14:00.384Z,0.60
2022-10-17T13:17:08.245Z,1.08
2022-10-17T13:20:25.567Z,1.30
2022-10-17T13:23:33.955Z,1.08
2022-10-17T13:26:38.119Z,1.27
2022-10-17T13:29:45.507Z,1.75
2022-10-17T13:32:48.614Z,1.30
2022-10-17T13:36:06.937Z,1.10
2022-10-17T13:39:15.069Z,1.15
2022-10-17T13:42:24.640Z,1.48
2022-10-17T13:45:30.715Z,1.10
2022-10-17T13:48:36.371Z,1.10
2022-10-17T13:51:44.469Z,1.35
2022-10-17T13:54:48.667Z,1.65
2022-10-17T13:57:53.016Z,1.00
2022-10-17T14:00:56.693Z,1.17
2022-10-17T14:04:09.440Z,0.90
2022-10-17T14:07:25.678Z,1.15
2022-10-17T14:10:32.522Z,1.20
2022-10-17T14:13:36.597Z,1.30
2022-10-17T14:16:41.088Z,1.10
2022-10-17T14:19:48.370Z,1.40
2022-10-17T14:23:20.982Z,1.45
2022-10-17T14:26:19.921Z,1.10
2022-10-17T14:29:26.200Z,1.00
2022-10-17T14:32:29.664Z,1.40
2022-10-17T14:35:42.015Z,1.30
2022-10-17T14:38:46.669Z,1.42
2022-10-17T14:41:49.539Z,1.50
2022-10-17T14:44:55.802Z,1.13
2022-10-17T14:48:03.551Z,1.10
2022-10-17T14:51:07.915Z,1.40
2022-10-17T14:54:21.284Z,1.17
2022-10-17T14:57:27.333Z,1.08
2022-10-17T15:00:31.587Z,0.80
2022-10-17T15:03:34.805Z,1.10
2022-10-17T15:06:38.076Z,1.08
2022-10-17T15:09:41.036Z,1.60
2022-10-17T15:12:52.023Z,1.45
2022-10-17T15:16:03.136Z,1.70
2022-10-17T15:19:05.944Z,1.10
2022-10-17T15:22:08.749Z,1.50
2022-10-17T15:25:12.344Z,1.38
2022-10-17T15:28:15.215Z,1.50
2022-10-17T15:31:21.122Z,2.80
2022-10-17T15:34:23.821Z,2.30
2022-10-17T15:37:26.915Z,2.08
2022-10-17T15:40:31.810Z,2.78
2022-10-17T15:43:34.458Z,2.55
2022-10-17T15:46:40.954Z,3.47
2022-10-17T15:49:43.634Z,3.88
2022-10-17T15:52:47.044Z,2.20
2022-10-17T15:55:50.970Z,1.48
2022-10-17T15:58:53.817Z,2.03
2022-10-17T16:05:00.696Z,2.05
2022-10-17T16:11:05.995Z,2.80
2022-10-17T16:14:11.844Z,2.72
2022-10-17T16:17:17.655Z,2.47
2022-10-17T16:20:20.674Z,2.60
2022-10-17T16:26:26.072Z,2.80
2022-10-17T16:29:28.786Z,2.47
2022-10-17T16:32:33.075Z,2.45
2022-10-17T16:35:37.536Z,2.43
2022-10-17T16:38:40.571Z,3.13
2022-10-17T16:41:43.533Z,2.20
2022-10-17T16:44:46.166Z,2.78
2022-10-17T16:47:55.388Z,2.30
2022-10-17T16:50:58.220Z,2.77
2022-10-17T16:54:01.140Z,2.08
2022-10-17T16:57:04.136Z,2.50
2022-10-17T17:00:08.937Z,2.80
2022-10-17T17:03:13.263Z,3.53
2022-10-17T17:06:19.133Z,2.57
2022-10-17T17:09:22.383Z,2.40
2022-10-17T17:12:25.663Z,2.67
2022-10-17T17:18:32.525Z,2.90
2022-10-17T17:21:35.909Z,3.43
2022-10-17T17:24:38.914Z,3.00
2022-10-17T17:27:41.816Z,3.22
2022-10-17T17:30:44.485Z,3.63
2022-10-17T17:33:49.174Z,3.22
2022-10-17T17:36:52.102Z,2.63
2022-10-17T17:39:54.811Z,3.22
2022-10-17T17:42:57.609Z,3.45
2022-10-17T17:46:03.802Z,3.35
2022-10-17T17:49:07.933Z,3.10
2022-10-17T17:52:10.659Z,3.33
2022-10-17T17:55:13.479Z,3.40
2022-10-17T17:58:16.374Z,3.42
2022-10-17T18:01:22.399Z,2.65
2022-10-17T18:04:28.154Z,3.17
2022-10-17T18:07:31.238Z,4.40
2022-10-17T18:10:34.123Z,3.30
2022-10-17T18:13:36.987Z,3.38
2022-10-17T18:16:40.471Z,5.28
2022-10-17T18:19:44.986Z,9.00
2022-10-17T18:22:47.766Z,4.73
2022-10-17T18:25:57.230Z,4.63
2022-10-17T18:29:00.103Z,5.90
2022-10-17T18:32:03.147Z,4.80
2022-10-17T18:35:07.957Z,4.28
2022-10-17T18:38:10.666Z,4.30
2022-10-17T18:41:15.052Z,4.35
2022-10-17T18:44:17.984Z,4.80
2022-10-17T18:47:20.758Z,4.55
2022-10-17T18:50:25.894Z,4.03
2022-10-17T18:53:29.337Z,4.87
2022-10-17T18:56:32.657Z,4.00
2022-10-17T19:02:38.179Z,4.33
2022-10-17T19:05:45.116Z,4.07
2022-10-17T19:08:48.588Z,4.47
2022-10-17T19:11:51.504Z,4.33
2022-10-17T19:14:56.422Z,3.88
2022-10-17T19:17:59.290Z,3.67
2022-10-17T19:21:07.854Z,4.88
2022-10-17T19:24:14.285Z,3.40
2022-10-17T19:27:17.010Z,4.07
2022-10-17T19:30:20.125Z,4.35
2022-10-17T19:33:22.784Z,5.18
2022-10-17T19:36:32.262Z,3.40
2022-10-17T19:39:36.494Z,3.67
2022-10-17T19:42:39.835Z,4.20
2022-10-17T19:48:45.632Z,4.53
2022-10-17T19:51:49.743Z,5.97
2022-10-17T19:54:52.554Z,5.40
2022-10-17T19:57:55.111Z,5.72
2022-10-17T20:01:01.113Z,3.88
2022-10-17T20:04:03.893Z,4.20
2022-10-17T20:07:08.517Z,4.57
2022-10-17T20:10:11.181Z,3.57
2022-10-17T20:13:14.115Z,3.75
2022-10-17T20:16:20.502Z,4.38
2022-10-17T20:19:23.246Z,3.37
2022-10-17T20:22:27.410Z,3.38
2022-10-17T20:25:30.242Z,3.87
2022-10-17T20:28:33.578Z,3.47
2022-10-17T20:34:39.347Z,3.60
2022-10-17T20:37:43.335Z,4.05
2022-10-17T20:40:46.422Z,3.57
2022-10-17T20:43:51.373Z,4.35
2022-10-17T20:47:01.697Z,4.23
2022-10-17T20:50:05.375Z,3.80
2022-10-17T20:53:34.818Z,3.83
2022-10-17T20:56:33.271Z,3.73
2022-10-17T20:59:36.153Z,3.47
2022-10-17T21:02:38.900Z,3.78
2022-10-17T21:05:41.859Z,3.72
2022-10-17T21:08:46.470Z,4.80
2022-10-17T21:11:51.214Z,4.77
2022-10-17T21:14:54.078Z,4.30
2022-10-17T21:17:56.845Z,4.38
2022-10-17T21:21:08.454Z,4.72
2022-10-17T21:24:14.236Z,4.37
2022-10-17T21:27:18.871Z,5.13
2022-10-17T21:30:21.722Z,4.43
2022-10-17T21:33:24.254Z,3.92
2022-10-17T21:36:28.039Z,3.80
2022-10-17T21:39:32.682Z,4.63
2022-10-17T21:42:35.332Z,4.80
2022-10-17T21:45:38.082Z,4.65
2022-10-17T21:48:40.969Z,4.85
2022-10-17T21:51:44.556Z,4.60
2022-10-17T21:54:48.644Z,4.40
2022-10-17T21:57:52.017Z,4.70
2022-10-17T22:00:54.732Z,4.00
2022-10-17T22:03:58.604Z,4.60
2022-10-17T22:07:01.297Z,5.37
2022-10-17T22:10:06.247Z,4.47
2022-10-17T22:13:08.839Z,4.57
2022-10-17T22:16:13.521Z,5.20
2022-10-17T22:19:18.237Z,4.23
2022-10-17T22:22:20.873Z,5.30
2022-10-17T22:25:24.871Z,4.65
2022-10-17T22:28:27.686Z,4.53
2022-10-17T22:31:30.428Z,3.65
2022-10-17T22:34:33.133Z,3.92
2022-10-17T22:37:35.722Z,4.40
2022-10-17T22:40:39.754Z,3.83
2022-10-17T22:43:42.680Z,3.93
2022-10-17T22:46:45.538Z,3.83
2022-10-17T22:49:48.163Z,3.40
2022-10-17T22:52:50.755Z,3.75
2022-10-17T22:55:55.562Z,3.90
2022-10-17T22:58:58.167Z,3.63
2022-10-17T23:02:00.993Z,3.42
2022-10-17T23:05:03.714Z,4.00
2022-10-17T23:08:06.585Z,4.82
2022-10-17T23:11:10.803Z,4.13
2022-10-17T23:14:13.575Z,4.60
2022-10-17T23:17:16.407Z,3.28
2022-10-17T23:20:19.077Z,3.17
2022-10-17T23:23:22.281Z,3.95
2022-10-17T23:26:26.345Z,3.83
2022-10-17T23:29:32.790Z,3.97
2022-10-17T23:32:35.407Z,3.30
2022-10-17T23:35:38.031Z,4.35
2022-10-17T23:38:40.947Z,3.70
2022-10-17T23:41:44.909Z,3.55
2022-10-17T23:44:47.674Z,3.80
2022-10-17T23:47:50.329Z,3.60
2022-10-17T23:50:53.104Z,4.47
2022-10-17T23:53:55.749Z,3.20
2022-10-17T23:56:59.791Z,4.15
